sensor_id;sensor_type;location;lat;lon;timestamp;temperature;humidity
41985;DHT22;28319;48.116;10.818;2023-08-07T00:00:43;11.00;99.90
41985;DHT22;28319;48.116;10.818;2023-08-07T00:05:47;11.00;99.90
41985;DHT22;28319;48.116;10.818;2023-08-07T00:10:49;10.90;99.90
41985;DHT22;28319;48.116;10.818;2023-08-07T00:15:52;10.90;99.90
41985;DHT22;28319;48.116;10.818;2023-08-07T00:20:55;10.90;99.90
41985;DHT22;28319;48.116;10.818;2023-08-07T00:25:57;10.90;99.90
41985;DHT22;28319;48.116;10.818;2023-08-07T00:30:59;10.80;99.90
41985;DHT22;28319;48.116;10.818;2023-08-07T00:36:03;10.80;99.90
41985;DHT22;28319;48.116;10.818;2023-08-07T00:41:05;10.70;99.90
41985;DHT22;28319;48.116;10.818;2023-08-07T00:46:08;10.70;99.90
41985;DHT22;28319;48.116;10.818;2023-08-07T00:51:11;10.70;99.90
41985;DHT22;28319;48.116;10.818;2023-08-07T01:14:47;10.60;99.90
41985;DHT22;28319;48.116;10.818;2023-08-07T01:19:52;10.60;99.90
41985;DHT22;28319;48.116;10.818;2023-08-07T01:24:55;10.60;99.90
41985;DHT22;28319;48.116;10.818;2023-08-07T01:30:00;10.60;99.90
41985;DHT22;28319;48.116;10.818;2023-08-07T01:35:05;10.60;99.90
41985;DHT22;28319;48.116;10.818;2023-08-07T01:40:10;10.60;99.90
41985;DHT22;28319;48.116;10.818;2023-08-07T01:45:13;10.60;99.90
41985;DHT22;28319;48.116;10.818;2023-08-07T01:50:15;10.50;99.90
41985;DHT22;28319;48.116;10.818;2023-08-07T01:55:20;10.60;99.90
41985;DHT22;28319;48.116;10.818;2023-08-07T02:00:22;10.50;99.90
41985;DHT22;28319;48.116;10.818;2023-08-07T02:05:24;10.60;99.90
41985;DHT22;28319;48.116;10.818;2023-08-07T02:10:27;10.60;99.90
41985;DHT22;28319;48.116;10.818;2023-08-07T02:15:29;10.50;99.90
41985;DHT22;28319;48.116;10.818;2023-08-07T02:20:31;10.50;99.90
41985;DHT22;28319;48.116;10.818;2023-08-07T02:25:35;10.50;99.90
41985;DHT22;28319;48.116;10.818;2023-08-07T02:30:37;10.50;99.90
41985;DHT22;28319;48.116;10.818;2023-08-07T02:35:39;10.60;99.90
41985;DHT22;28319;48.116;10.818;2023-08-07T02:40:43;10.50;99.90
41985;DHT22;28319;48.116;10.818;2023-08-07T02:45:45;10.50;99.90
41985;DHT22;28319;48.116;10.818;2023-08-07T02:50:47;10.50;99.90
41985;DHT22;28319;48.116;10.818;2023-08-07T02:55:53;10.50;99.90
41985;DHT22;28319;48.116;10.818;2023-08-07T03:00:55;10.50;99.90
41985;DHT22;28319;48.116;10.818;2023-08-07T03:05:57;10.60;99.90
41985;DHT22;28319;48.116;10.818;2023-08-07T03:11:00;10.60;99.90
41985;DHT22;28319;48.116;10.818;2023-08-07T03:16:04;10.60;99.90
41985;DHT22;28319;48.116;10.818;2023-08-07T03:21:06;10.60;99.90
41985;DHT22;28319;48.116;10.818;2023-08-07T03:26:11;10.60;99.90
41985;DHT22;28319;48.116;10.818;2023-08-07T03:31:13;10.60;99.90
41985;DHT22;28319;48.116;10.818;2023-08-07T03:36:15;10.60;99.90
41985;DHT22;28319;48.116;10.818;2023-08-07T03:41:19;10.60;99.90
41985;DHT22;28319;48.116;10.818;2023-08-07T03:46:21;10.60;99.90
41985;DHT22;28319;48.116;10.818;2023-08-07T03:51:23;10.60;99.90
41985;DHT22;28319;48.116;10.818;2023-08-07T03:56:26;10.50;99.90
41985;DHT22;28319;48.116;10.818;2023-08-07T04:01:33;10.60;99.90
41985;DHT22;28319;48.116;10.818;2023-08-07T04:06:35;10.60;99.90
41985;DHT22;28319;48.116;10.818;2023-08-07T04:11:38;10.60;99.90
41985;DHT22;28319;48.116;10.818;2023-08-07T04:16:41;10.60;99.90
41985;DHT22;28319;48.116;10.818;2023-08-07T04:21:43;10.60;99.90
41985;DHT22;28319;48.116;10.818;2023-08-07T04:26:47;10.60;99.90
41985;DHT22;28319;48.116;10.818;2023-08-07T04:31:49;10.60;99.90
41985;DHT22;28319;48.116;10.818;2023-08-07T04:36:51;10.60;99.90
41985;DHT22;28319;48.116;10.818;2023-08-07T04:41:55;10.70;99.90
41985;DHT22;28319;48.116;10.818;2023-08-07T04:46:57;10.70;99.90
41985;DHT22;28319;48.116;10.818;2023-08-07T04:51:59;10.70;99.90
41985;DHT22;28319;48.116;10.818;2023-08-07T04:57:03;10.60;99.90
41985;DHT22;28319;48.116;10.818;2023-08-07T05:02:06;10.70;99.90
41985;DHT22;28319;48.116;10.818;2023-08-07T05:07:08;10.70;99.90
41985;DHT22;28319;48.116;10.818;2023-08-07T05:12:12;10.70;99.90
41985;DHT22;28319;48.116;10.818;2023-08-07T05:17:14;10.70;99.90
41985;DHT22;28319;48.116;10.818;2023-08-07T05:22:16;10.80;99.90
41985;DHT22;28319;48.116;10.818;2023-08-07T05:27:19;10.70;99.90
41985;DHT22;28319;48.116;10.818;2023-08-07T05:32:24;10.80;99.90
41985;DHT22;28319;48.116;10.818;2023-08-07T05:37:26;10.90;99.90
41985;DHT22;28319;48.116;10.818;2023-08-07T05:42:32;10.90;99.90
41985;DHT22;28319;48.116;10.818;2023-08-07T05:47:36;11.00;99.90
41985;DHT22;28319;48.116;10.818;2023-08-07T05:52:38;11.10;99.90
41985;DHT22;28319;48.116;10.818;2023-08-07T05:57:42;11.10;99.90
41985;DHT22;28319;48.116;10.818;2023-08-07T06:02:43;11.10;99.90
41985;DHT22;28319;48.116;10.818;2023-08-07T06:07:45;11.30;99.90
41985;DHT22;28319;48.116;10.818;2023-08-07T06:12:49;11.40;99.90
41985;DHT22;28319;48.116;10.818;2023-08-07T06:17:51;11.60;99.90
41985;DHT22;28319;48.116;10.818;2023-08-07T06:22:53;11.60;99.90
41985;DHT22;28319;48.116;10.818;2023-08-07T06:27:56;11.60;99.90
41985;DHT22;28319;48.116;10.818;2023-08-07T06:32:58;11.80;99.90
41985;DHT22;28319;48.116;10.818;2023-08-07T06:38:00;11.80;99.90
41985;DHT22;28319;48.116;10.818;2023-08-07T06:43:03;11.90;99.90
41985;DHT22;28319;48.116;10.818;2023-08-07T06:48:05;12.00;99.90
41985;DHT22;28319;48.116;10.818;2023-08-07T06:53:07;12.20;99.90
41985;DHT22;28319;48.116;10.818;2023-08-07T06:58:11;12.30;99.90
41985;DHT22;28319;48.116;10.818;2023-08-07T07:03:14;12.30;99.90
41985;DHT22;28319;48.116;10.818;2023-08-07T07:08:16;12.30;99.90
41985;DHT22;28319;48.116;10.818;2023-08-07T07:13:19;12.40;99.90
41985;DHT22;28319;48.116;10.818;2023-08-07T07:18:22;12.40;99.90
41985;DHT22;28319;48.116;10.818;2023-08-07T07:23:24;12.40;99.90
41985;DHT22;28319;48.116;10.818;2023-08-07T07:28:27;12.50;99.90
41985;DHT22;28319;48.116;10.818;2023-08-07T07:33:29;12.50;99.90
41985;DHT22;28319;48.116;10.818;2023-08-07T07:38:31;12.60;99.90
41985;DHT22;28319;48.116;10.818;2023-08-07T07:43:35;12.70;99.90
41985;DHT22;28319;48.116;10.818;2023-08-07T07:48:37;12.70;99.90
41985;DHT22;28319;48.116;10.818;2023-08-07T07:53:39;12.80;99.90
41985;DHT22;28319;48.116;10.818;2023-08-07T07:58:42;12.90;99.90
41985;DHT22;28319;48.116;10.818;2023-08-07T08:03:44;13.00;99.90
41985;DHT22;28319;48.116;10.818;2023-08-07T08:08:46;13.00;99.90
41985;DHT22;28319;48.116;10.818;2023-08-07T08:13:50;13.00;99.90
41985;DHT22;28319;48.116;10.818;2023-08-07T08:18:52;13.00;99.90
41985;DHT22;28319;48.116;10.818;2023-08-07T08:23:54;13.00;99.90
41985;DHT22;28319;48.116;10.818;2023-08-07T08:28:57;13.00;99.90
41985;DHT22;28319;48.116;10.818;2023-08-07T08:33:59;13.20;99.90
41985;DHT22;28319;48.116;10.818;2023-08-07T08:39:01;13.20;99.90
41985;DHT22;28319;48.116;10.818;2023-08-07T08:44:06;13.20;99.90
41985;DHT22;28319;48.116;10.818;2023-08-07T08:49:08;13.40;99.90
41985;DHT22;28319;48.116;10.818;2023-08-07T08:54:13;13.50;99.90
41985;DHT22;28319;48.116;10.818;2023-08-07T08:59:17;13.50;99.90
41985;DHT22;28319;48.116;10.818;2023-08-07T09:04:19;13.60;99.90
41985;DHT22;28319;48.116;10.818;2023-08-07T09:09:22;13.50;99.90
41985;DHT22;28319;48.116;10.818;2023-08-07T09:14:30;13.40;99.90
41985;DHT22;28319;48.116;10.818;2023-08-07T09:19:32;13.40;99.90
41985;DHT22;28319;48.116;10.818;2023-08-07T09:24:34;13.50;99.90
41985;DHT22;28319;48.116;10.818;2023-08-07T09:29:39;14.00;99.90
41985;DHT22;28319;48.116;10.818;2023-08-07T09:34:41;14.20;99.90
41985;DHT22;28319;48.116;10.818;2023-08-07T09:39:44;14.40;99.90
41985;DHT22;28319;48.116;10.818;2023-08-07T09:44:47;14.50;99.90
41985;DHT22;28319;48.116;10.818;2023-08-07T09:49:54;14.50;99.90
41985;DHT22;28319;48.116;10.818;2023-08-07T09:54:56;14.50;99.90
41985;DHT22;28319;48.116;10.818;2023-08-07T10:00:01;14.80;99.90
41985;DHT22;28319;48.116;10.818;2023-08-07T10:05:06;15.00;99.90
41985;DHT22;28319;48.116;10.818;2023-08-07T10:10:09;14.80;99.90
41985;DHT22;28319;48.116;10.818;2023-08-07T10:15:14;14.80;99.90
41985;DHT22;28319;48.116;10.818;2023-08-07T10:20:16;14.90;99.90
41985;DHT22;28319;48.116;10.818;2023-08-07T10:25:21;15.20;99.90
41985;DHT22;28319;48.116;10.818;2023-08-07T10:30:25;15.60;99.90
41985;DHT22;28319;48.116;10.818;2023-08-07T10:35:30;15.60;99.90
41985;DHT22;28319;48.116;10.818;2023-08-07T10:40:32;15.50;99.90
41985;DHT22;28319;48.116;10.818;2023-08-07T10:45:38;16.00;99.90
41985;DHT22;28319;48.116;10.818;2023-08-07T10:50:50;16.60;99.90
41985;DHT22;28319;48.116;10.818;2023-08-07T10:55:52;16.60;99.90
41985;DHT22;28319;48.116;10.818;2023-08-07T11:01:41;17.00;99.90
41985;DHT22;28319;48.116;10.818;2023-08-07T11:06:46;17.20;99.90
41985;DHT22;28319;48.116;10.818;2023-08-07T11:11:48;17.20;99.70
41985;DHT22;28319;48.116;10.818;2023-08-07T11:16:52;17.00;99.00
41985;DHT22;28319;48.116;10.818;2023-08-07T11:21:54;16.70;98.40
41985;DHT22;28319;48.116;10.818;2023-08-07T11:26:57;17.10;98.80
41985;DHT22;28319;48.116;10.818;2023-08-07T11:32:02;17.20;97.40
41985;DHT22;28319;48.116;10.818;2023-08-07T11:37:04;16.80;98.50
41985;DHT22;28319;48.116;10.818;2023-08-07T11:42:06;16.50;99.10
41985;DHT22;28319;48.116;10.818;2023-08-07T11:47:10;16.20;99.10
41985;DHT22;28319;48.116;10.818;2023-08-07T11:52:12;16.00;99.70
41985;DHT22;28319;48.116;10.818;2023-08-07T11:57:18;15.70;98.60
41985;DHT22;28319;48.116;10.818;2023-08-07T12:02:26;15.40;98.70
41985;DHT22;28319;48.116;10.818;2023-08-07T12:07:28;15.50;99.30
41985;DHT22;28319;48.116;10.818;2023-08-07T12:12:33;15.60;98.90
41985;DHT22;28319;48.116;10.818;2023-08-07T12:17:37;15.90;99.30
41985;DHT22;28319;48.116;10.818;2023-08-07T12:22:39;16.40;99.40
41985;DHT22;28319;48.116;10.818;2023-08-07T12:27:42;16.80;97.90
41985;DHT22;28319;48.116;10.818;2023-08-07T12:32:45;16.50;98.10
41985;DHT22;28319;48.116;10.818;2023-08-07T12:37:47;16.70;98.50
41985;DHT22;28319;48.116;10.818;2023-08-07T12:42:49;17.00;98.50
41985;DHT22;28319;48.116;10.818;2023-08-07T12:47:53;17.70;95.30
41985;DHT22;28319;48.116;10.818;2023-08-07T12:52:55;17.70;95.40
41985;DHT22;28319;48.116;10.818;2023-08-07T12:57:57;17.60;95.10
41985;DHT22;28319;48.116;10.818;2023-08-07T13:03:00;18.40;95.80
41985;DHT22;28319;48.116;10.818;2023-08-07T13:08:03;18.30;94.80
41985;DHT22;28319;48.116;10.818;2023-08-07T13:13:05;18.00;94.70
41985;DHT22;28319;48.116;10.818;2023-08-07T13:18:08;17.50;95.30
41985;DHT22;28319;48.116;10.818;2023-08-07T13:23:11;17.40;95.10
41985;DHT22;28319;48.116;10.818;2023-08-07T13:28:13;17.80;94.80
41985;DHT22;28319;48.116;10.818;2023-08-07T13:33:16;17.90;95.10
41985;DHT22;28319;48.116;10.818;2023-08-07T13:38:20;17.70;94.70
41985;DHT22;28319;48.116;10.818;2023-08-07T13:43:22;17.60;94.60
41985;DHT22;28319;48.116;10.818;2023-08-07T13:48:26;17.30;94.70
41985;DHT22;28319;48.116;10.818;2023-08-07T13:53:28;17.30;95.60
41985;DHT22;28319;48.116;10.818;2023-08-07T13:58:30;17.10;95.00
41985;DHT22;28319;48.116;10.818;2023-08-07T14:03:34;17.10;95.10
41985;DHT22;28319;48.116;10.818;2023-08-07T14:08:36;16.90;94.80
41985;DHT22;28319;48.116;10.818;2023-08-07T14:13:38;16.80;95.80
41985;DHT22;28319;48.116;10.818;2023-08-07T14:18:41;16.80;95.30
41985;DHT22;28319;48.116;10.818;2023-08-07T14:23:44;16.60;95.50
41985;DHT22;28319;48.116;10.818;2023-08-07T14:28:47;16.50;96.00
41985;DHT22;28319;48.116;10.818;2023-08-07T14:33:52;16.30;95.20
41985;DHT22;28319;48.116;10.818;2023-08-07T14:38:54;16.20;95.50
41985;DHT22;28319;48.116;10.818;2023-08-07T14:43:56;16.10;96.30
41985;DHT22;28319;48.116;10.818;2023-08-07T14:49:00;16.00;95.90
41985;DHT22;28319;48.116;10.818;2023-08-07T14:54:02;16.10;96.50
41985;DHT22;28319;48.116;10.818;2023-08-07T14:59:04;16.40;96.50
41985;DHT22;28319;48.116;10.818;2023-08-07T15:04:07;16.60;96.70
41985;DHT22;28319;48.116;10.818;2023-08-07T15:09:11;16.60;95.40
41985;DHT22;28319;48.116;10.818;2023-08-07T15:14:13;16.50;96.20
41985;DHT22;28319;48.116;10.818;2023-08-07T15:19:19;16.10;96.70
41985;DHT22;28319;48.116;10.818;2023-08-07T15:24:22;16.10;96.90
41985;DHT22;28319;48.116;10.818;2023-08-07T15:29:24;16.20;97.10
41985;DHT22;28319;48.116;10.818;2023-08-07T15:34:27;16.20;97.30
41985;DHT22;28319;48.116;10.818;2023-08-07T15:39:29;16.10;97.50
41985;DHT22;28319;48.116;10.818;2023-08-07T15:44:31;16.00;97.80
41985;DHT22;28319;48.116;10.818;2023-08-07T15:49:35;16.00;97.90
41985;DHT22;28319;48.116;10.818;2023-08-07T15:54:37;16.00;98.40
41985;DHT22;28319;48.116;10.818;2023-08-07T15:59:39;16.00;98.90
41985;DHT22;28319;48.116;10.818;2023-08-07T16:04:44;15.90;98.50
41985;DHT22;28319;48.116;10.818;2023-08-07T16:09:46;16.10;98.00
41985;DHT22;28319;48.116;10.818;2023-08-07T16:14:48;16.20;98.30
41985;DHT22;28319;48.116;10.818;2023-08-07T16:19:51;16.10;97.80
41985;DHT22;28319;48.116;10.818;2023-08-07T16:24:53;16.20;97.90
41985;DHT22;28319;48.116;10.818;2023-08-07T16:29:55;16.10;97.20
41985;DHT22;28319;48.116;10.818;2023-08-07T16:35:06;16.20;97.60
41985;DHT22;28319;48.116;10.818;2023-08-07T16:40:09;16.30;97.30
41985;DHT22;28319;48.116;10.818;2023-08-07T16:45:11;16.10;97.40
41985;DHT22;28319;48.116;10.818;2023-08-07T16:50:15;16.10;97.80
41985;DHT22;28319;48.116;10.818;2023-08-07T16:55:17;16.00;98.20
41985;DHT22;28319;48.116;10.818;2023-08-07T17:00:19;16.10;98.60
41985;DHT22;28319;48.116;10.818;2023-08-07T17:05:23;16.10;99.00
41985;DHT22;28319;48.116;10.818;2023-08-07T17:10:26;16.00;99.30
41985;DHT22;28319;48.116;10.818;2023-08-07T17:15:28;15.90;99.60
41985;DHT22;28319;48.116;10.818;2023-08-07T17:20:32;15.80;99.90
41985;DHT22;28319;48.116;10.818;2023-08-07T17:25:34;15.80;99.90
41985;DHT22;28319;48.116;10.818;2023-08-07T17:30:36;15.60;99.90
41985;DHT22;28319;48.116;10.818;2023-08-07T17:35:39;15.50;99.90
41985;DHT22;28319;48.116;10.818;2023-08-07T17:40:42;15.20;99.90
41985;DHT22;28319;48.116;10.818;2023-08-07T17:45:44;15.10;99.90
41985;DHT22;28319;48.116;10.818;2023-08-07T17:50:47;15.10;99.90
41985;DHT22;28319;48.116;10.818;2023-08-07T17:55:49;15.00;99.90
41985;DHT22;28319;48.116;10.818;2023-08-07T18:00:51;14.80;99.90
41985;DHT22;28319;48.116;10.818;2023-08-07T18:05:55;14.70;99.90
41985;DHT22;28319;48.116;10.818;2023-08-07T18:10:57;14.80;99.90
41985;DHT22;28319;48.116;10.818;2023-08-07T18:15:59;14.60;99.90
41985;DHT22;28319;48.116;10.818;2023-08-07T18:21:03;14.50;99.90
41985;DHT22;28319;48.116;10.818;2023-08-07T18:26:05;14.40;99.90
41985;DHT22;28319;48.116;10.818;2023-08-07T18:31:07;14.30;99.90
41985;DHT22;28319;48.116;10.818;2023-08-07T18:36:11;14.40;99.90
41985;DHT22;28319;48.116;10.818;2023-08-07T18:41:14;14.30;99.90
41985;DHT22;28319;48.116;10.818;2023-08-07T18:46:16;14.20;99.90
41985;DHT22;28319;48.116;10.818;2023-08-07T18:51:20;14.10;99.90
41985;DHT22;28319;48.116;10.818;2023-08-07T18:56:22;14.00;99.90
41985;DHT22;28319;48.116;10.818;2023-08-07T19:01:24;13.90;99.90
41985;DHT22;28319;48.116;10.818;2023-08-07T19:06:27;13.90;99.90
41985;DHT22;28319;48.116;10.818;2023-08-07T19:11:33;13.80;99.90
41985;DHT22;28319;48.116;10.818;2023-08-07T19:16:35;13.70;99.90
41985;DHT22;28319;48.116;10.818;2023-08-07T19:21:38;13.70;99.90
41985;DHT22;28319;48.116;10.818;2023-08-07T19:26:40;13.60;99.90
41985;DHT22;28319;48.116;10.818;2023-08-07T19:31:42;13.50;99.90
41985;DHT22;28319;48.116;10.818;2023-08-07T19:36:46;13.40;99.90
41985;DHT22;28319;48.116;10.818;2023-08-07T19:41:50;13.40;99.90
41985;DHT22;28319;48.116;10.818;2023-08-07T19:46:53;13.30;99.90
41985;DHT22;28319;48.116;10.818;2023-08-07T19:51:57;13.20;99.90
41985;DHT22;28319;48.116;10.818;2023-08-07T19:56:59;13.20;99.90
41985;DHT22;28319;48.116;10.818;2023-08-07T20:02:01;13.20;99.90
41985;DHT22;28319;48.116;10.818;2023-08-07T20:07:05;13.10;99.90
41985;DHT22;28319;48.116;10.818;2023-08-07T20:12:07;13.00;99.90
41985;DHT22;28319;48.116;10.818;2023-08-07T20:17:10;12.90;99.90
41985;DHT22;28319;48.116;10.818;2023-08-07T20:22:13;12.90;99.90
41985;DHT22;28319;48.116;10.818;2023-08-07T20:27:16;12.90;99.90
41985;DHT22;28319;48.116;10.818;2023-08-07T20:32:18;12.90;99.90
41985;DHT22;28319;48.116;10.818;2023-08-07T20:37:21;12.90;99.90
41985;DHT22;28319;48.116;10.818;2023-08-07T20:42:24;12.80;99.90
41985;DHT22;28319;48.116;10.818;2023-08-07T20:47:26;13.00;99.90
41985;DHT22;28319;48.116;10.818;2023-08-07T20:52:30;13.00;99.90
41985;DHT22;28319;48.116;10.818;2023-08-07T20:57:32;13.00;99.90
41985;DHT22;28319;48.116;10.818;2023-08-07T21:02:35;13.00;99.90
41985;DHT22;28319;48.116;10.818;2023-08-07T21:07:48;13.10;99.90
41985;DHT22;28319;48.116;10.818;2023-08-07T21:12:50;13.10;99.90
41985;DHT22;28319;48.116;10.818;2023-08-07T21:17:52;13.10;99.90
41985;DHT22;28319;48.116;10.818;2023-08-07T21:22:55;13.10;99.90
41985;DHT22;28319;48.116;10.818;2023-08-07T21:27:57;12.90;99.90
41985;DHT22;28319;48.116;10.818;2023-08-07T21:32:59;12.90;99.90
41985;DHT22;28319;48.116;10.818;2023-08-07T21:38:03;12.90;99.90
41985;DHT22;28319;48.116;10.818;2023-08-07T21:43:05;12.70;99.90
41985;DHT22;28319;48.116;10.818;2023-08-07T21:48:07;12.70;99.90
41985;DHT22;28319;48.116;10.818;2023-08-07T21:53:11;12.70;99.90
41985;DHT22;28319;48.116;10.818;2023-08-07T21:58:12;12.60;99.90
41985;DHT22;28319;48.116;10.818;2023-08-07T22:03:15;12.60;99.90
41985;DHT22;28319;48.116;10.818;2023-08-07T22:08:18;12.50;99.90
41985;DHT22;28319;48.116;10.818;2023-08-07T22:13:20;12.40;99.90
41985;DHT22;28319;48.116;10.818;2023-08-07T22:18:22;12.40;99.90
41985;DHT22;28319;48.116;10.818;2023-08-07T22:23:26;12.30;99.90
41985;DHT22;28319;48.116;10.818;2023-08-07T22:28:28;12.20;99.90
41985;DHT22;28319;48.116;10.818;2023-08-07T22:33:30;12.20;99.90
41985;DHT22;28319;48.116;10.818;2023-08-07T22:38:34;12.20;99.90
41985;DHT22;28319;48.116;10.818;2023-08-07T22:43:36;12.10;99.90
41985;DHT22;28319;48.116;10.818;2023-08-07T22:48:38;12.00;99.90
41985;DHT22;28319;48.116;10.818;2023-08-07T22:53:41;12.00;99.90
41985;DHT22;28319;48.116;10.818;2023-08-07T22:58:43;12.00;99.90
41985;DHT22;28319;48.116;10.818;2023-08-07T23:03:45;12.00;99.90
41985;DHT22;28319;48.116;10.818;2023-08-07T23:08:49;12.00;99.90
41985;DHT22;28319;48.116;10.818;2023-08-07T23:13:51;12.00;99.90
41985;DHT22;28319;48.116;10.818;2023-08-07T23:18:53;12.00;99.90
41985;DHT22;28319;48.116;10.818;2023-08-07T23:23:56;12.00;99.90
41985;DHT22;28319;48.116;10.818;2023-08-07T23:28:58;12.00;99.90
41985;DHT22;28319;48.116;10.818;2023-08-07T23:34:00;12.00;99.90
41985;DHT22;28319;48.116;10.818;2023-08-07T23:39:04;12.00;99.90
41985;DHT22;28319;48.116;10.818;2023-08-07T23:44:05;12.00;99.90
41985;DHT22;28319;48.116;10.818;2023-08-07T23:49:07;12.00;99.90
41985;DHT22;28319;48.116;10.818;2023-08-07T23:54:11;12.00;99.90
41985;DHT22;28319;48.116;10.818;2023-08-07T23:59:13;11.90;99.90
